Moe, South Dakota
Current Conditions -  °F | °C
As of 6:35 PM on Saturday 20 Dec 2014 (Local Time) from KORC Reporting Station
Haze Haze  
Wind Chill: 24°   Ceiling: 500
Heat Index: 32°   Visibility: 4mi
Dew Point: 30°   Wind: 10mph
Humidity: 93%   Direction: 180°S
Pressure: 30.04"   Gusts: NA
Location:  43.1282°N, 96.5674°W
Report Text: KORC 210035Z AUTO 18009KT 4SM BR OVC005 00/M01 A3004 RMK AO2
Loading
Personal Weather Stations






























Interactive Weather Map New forecast layout! Learn more

10-Day Weather Forecast

Advertisements
Track Severe Weather on mobile